createdAt,value
2019-01-04T00:00:55.488Z,46.50
2019-01-04T00:03:24.818Z,46.30
2019-01-04T00:05:54.024Z,46.30
2019-01-04T00:08:23.670Z,46.30
2019-01-04T00:10:52.910Z,46.30
2019-01-04T00:13:22.430Z,46.10
2019-01-04T00:15:51.605Z,46.10
2019-01-04T00:18:20.826Z,46.20
2019-01-04T00:20:50.008Z,46.30
2019-01-04T00:23:19.230Z,46.40
2019-01-04T00:25:48.370Z,46.50
2019-01-04T00:28:17.666Z,46.50
2019-01-04T00:30:46.845Z,46.60
2019-01-04T00:33:15.981Z,45.80
2019-01-04T00:35:45.189Z,46.40
2019-01-04T00:38:14.414Z,46.50
2019-01-04T00:40:43.675Z,47.00
2019-01-04T00:43:12.859Z,46.80
2019-01-04T00:45:42.081Z,46.80
2019-01-04T00:48:11.333Z,46.80
2019-01-04T00:50:40.522Z,47.00
2019-01-04T00:53:09.773Z,47.20
2019-01-04T00:56:19.332Z,47.20
2019-01-04T00:59:31.422Z,47.30
2019-01-04T01:02:34.510Z,47.20
2019-01-04T01:05:49.587Z,47.20
2019-01-04T01:08:55.095Z,47.10
2019-01-04T01:12:01.364Z,47.10
2019-01-04T01:14:55.361Z,47.10
2019-01-04T01:18:03.213Z,47.10
2019-01-04T01:21:34.649Z,47.00
2019-01-04T01:24:48.597Z,46.90
2019-01-04T01:27:55.457Z,46.80
2019-01-04T01:31:05.123Z,47.00
2019-01-04T01:34:16.830Z,47.00
2019-01-04T01:37:23.693Z,47.00
2019-01-04T01:40:36.977Z,47.00
2019-01-04T01:43:55.222Z,47.00
2019-01-04T01:46:32.203Z,47.00
2019-01-04T01:49:50.452Z,47.00
2019-01-04T01:52:27.340Z,47.10
2019-01-04T01:54:56.929Z,47.50
2019-01-04T01:57:26.186Z,47.10
2019-01-04T01:59:55.381Z,47.00
2019-01-04T02:02:24.839Z,47.00
2019-01-04T02:04:54.098Z,47.10
2019-01-04T02:07:23.253Z,47.00
2019-01-04T02:09:52.361Z,47.00
2019-01-04T02:12:21.895Z,46.90
2019-01-04T02:14:51.070Z,47.00
2019-01-04T02:17:20.235Z,47.00
2019-01-04T02:19:49.437Z,46.90
2019-01-04T02:22:19.006Z,47.00
2019-01-04T02:24:48.268Z,47.10
2019-01-04T02:27:17.434Z,47.00
2019-01-04T02:29:46.708Z,47.00
2019-01-04T02:32:15.956Z,47.10
2019-01-04T02:34:45.137Z,47.10
2019-01-04T02:37:14.369Z,47.20
2019-01-04T02:39:43.560Z,47.20
2019-01-04T02:42:12.758Z,47.20
2019-01-04T02:44:41.993Z,47.20
2019-01-04T02:47:11.180Z,47.10
2019-01-04T02:49:40.438Z,47.10
2019-01-04T02:52:09.686Z,47.20
2019-01-04T02:54:38.883Z,47.30
2019-01-04T02:57:08.088Z,47.20
2019-01-04T02:59:37.302Z,47.10
2019-01-04T03:02:08.303Z,47.20
2019-01-04T03:04:37.507Z,47.10
2019-01-04T03:07:06.697Z,47.10
2019-01-04T03:09:35.918Z,47.10
2019-01-04T03:12:05.401Z,47.00
2019-01-04T03:14:34.575Z,47.10
2019-01-04T03:17:03.800Z,47.20
2019-01-04T03:19:33.038Z,47.70
2019-01-04T03:22:02.218Z,47.00
2019-01-04T03:24:31.485Z,47.00
2019-01-04T03:27:00.692Z,47.00
2019-01-04T03:29:29.895Z,46.90
2019-01-04T03:31:59.169Z,46.90
2019-01-04T03:34:28.394Z,47.00
2019-01-04T03:36:57.616Z,47.00
2019-01-04T03:39:26.859Z,47.00
2019-01-04T03:41:56.051Z,47.00
2019-01-04T03:44:25.297Z,47.00
2019-01-04T03:46:54.481Z,47.20
2019-01-04T03:49:23.698Z,47.00
2019-01-04T03:51:52.878Z,47.10
2019-01-04T03:54:22.120Z,47.10
2019-01-04T03:56:51.739Z,47.10
2019-01-04T03:59:20.961Z,47.20
2019-01-04T04:01:50.168Z,47.20
2019-01-04T04:04:19.391Z,47.20
2019-01-04T04:06:48.588Z,47.30
2019-01-04T04:09:17.815Z,47.20
2019-01-04T04:11:47.405Z,47.20
2019-01-04T04:14:16.567Z,47.30
2019-01-04T04:16:45.824Z,47.30
2019-01-04T04:19:15.049Z,47.30
2019-01-04T04:21:44.189Z,47.30
2019-01-04T04:24:13.337Z,47.30
2019-01-04T04:26:42.516Z,47.30
2019-01-04T04:29:11.733Z,47.30
2019-01-04T04:31:40.961Z,47.30
2019-01-04T04:34:10.213Z,47.30
2019-01-04T04:36:39.381Z,47.20
2019-01-04T04:39:08.853Z,47.20
2019-01-04T04:41:38.108Z,47.20
2019-01-04T04:44:07.288Z,47.10
2019-01-04T04:46:36.497Z,47.10
2019-01-04T04:49:05.737Z,47.10
2019-01-04T04:51:34.938Z,47.10
2019-01-04T04:54:04.192Z,47.00
2019-01-04T04:56:33.413Z,47.10
2019-01-04T04:59:02.556Z,47.10
2019-01-04T05:01:31.802Z,47.00
2019-01-04T05:04:00.965Z,47.00
2019-01-04T05:06:30.202Z,47.00
2019-01-04T05:08:59.422Z,47.00
2019-01-04T05:11:28.642Z,46.90
2019-01-04T05:13:57.869Z,47.10
2019-01-04T05:16:27.071Z,47.00
2019-01-04T05:18:56.255Z,48.10
2019-01-04T05:21:25.505Z,48.80
2019-01-04T05:23:54.745Z,48.70
2019-01-04T05:26:23.897Z,48.30
2019-01-04T05:28:53.094Z,48.10
2019-01-04T05:31:22.330Z,48.10
2019-01-04T05:33:51.529Z,48.20
2019-01-04T05:36:21.010Z,48.20
2019-01-04T05:38:50.176Z,48.30
2019-01-04T05:41:19.402Z,48.20
2019-01-04T05:43:48.563Z,48.20
2019-01-04T05:46:17.789Z,48.20
2019-01-04T05:48:46.990Z,48.20
2019-01-04T05:51:16.199Z,48.20
2019-01-04T05:53:45.417Z,48.20
2019-01-04T05:56:14.642Z,48.20
2019-01-04T05:58:43.860Z,48.20
2019-01-04T06:01:13.913Z,48.00
2019-01-04T06:03:43.454Z,48.30
2019-01-04T06:06:12.620Z,48.70
2019-01-04T06:08:41.826Z,49.00
2019-01-04T06:11:11.051Z,49.00
2019-01-04T06:13:40.310Z,49.00
2019-01-04T06:16:09.526Z,49.00
2019-01-04T06:18:38.733Z,48.80
2019-01-04T06:21:07.968Z,48.80
2019-01-04T06:23:41.195Z,48.70
2019-01-04T06:26:10.493Z,48.60
2019-01-04T06:28:39.729Z,48.40
2019-01-04T06:31:09.290Z,48.40
2019-01-04T06:33:41.174Z,48.40
2019-01-04T06:36:10.372Z,48.40
2019-01-04T06:38:39.613Z,48.30
2019-01-04T06:41:08.818Z,48.30
2019-01-04T06:43:37.991Z,48.30
2019-01-04T06:46:07.229Z,48.30
2019-01-04T06:48:37.805Z,48.20
2019-01-04T06:51:07.160Z,48.50
2019-01-04T06:53:36.461Z,48.30
2019-01-04T06:56:06.944Z,48.20
2019-01-04T06:58:36.168Z,48.20
2019-01-04T07:01:05.378Z,48.80
2019-01-04T07:03:34.593Z,48.10
2019-01-04T07:06:03.833Z,48.10
2019-01-04T07:08:33.041Z,48.00
2019-01-04T07:11:02.250Z,48.00
2019-01-04T07:13:31.490Z,48.00
2019-01-04T07:16:00.684Z,47.90
2019-01-04T07:18:29.892Z,47.80
2019-01-04T07:20:59.021Z,47.70
2019-01-04T07:23:28.243Z,47.80
2019-01-04T07:25:57.505Z,47.50
2019-01-04T07:28:26.713Z,47.60
2019-01-04T07:30:55.955Z,47.80
2019-01-04T07:33:25.205Z,48.00
2019-01-04T07:35:54.382Z,47.80
2019-01-04T07:38:23.541Z,47.90
2019-01-04T07:40:52.755Z,47.80
2019-01-04T07:43:21.965Z,47.70
2019-01-04T07:45:51.134Z,47.70
2019-01-04T07:48:20.460Z,47.70
2019-01-04T07:50:49.729Z,48.20
2019-01-04T07:53:18.944Z,47.50
2019-01-04T07:55:48.107Z,47.40
2019-01-04T07:58:17.306Z,47.40
2019-01-04T08:00:46.452Z,47.50
2019-01-04T08:03:19.798Z,47.30
2019-01-04T08:05:49.137Z,47.30
2019-01-04T08:08:18.613Z,47.30
2019-01-04T08:10:47.790Z,47.30
2019-01-04T08:13:17.026Z,47.30
2019-01-04T08:15:46.214Z,47.20
2019-01-04T08:18:15.415Z,47.20
2019-01-04T08:20:44.708Z,47.10
2019-01-04T08:23:13.872Z,47.20
2019-01-04T08:25:43.109Z,47.10
2019-01-04T08:28:12.320Z,47.20
2019-01-04T08:30:41.494Z,47.20
2019-01-04T08:33:10.661Z,47.10
2019-01-04T08:35:39.906Z,47.00
2019-01-04T08:38:09.085Z,46.90
2019-01-04T08:40:38.257Z,46.50
2019-01-04T08:43:07.414Z,46.20
2019-01-04T08:45:36.617Z,46.20
2019-01-04T08:48:05.863Z,46.90
2019-01-04T08:50:35.072Z,46.50
2019-01-04T08:53:04.285Z,46.40
2019-01-04T08:55:33.489Z,46.70
2019-01-04T08:58:02.600Z,46.70
2019-01-04T09:00:32.105Z,46.60
2019-01-04T09:03:01.318Z,46.70
2019-01-04T09:05:30.488Z,46.70
2019-01-04T09:07:59.709Z,46.60
2019-01-04T09:10:28.918Z,46.60
2019-01-04T09:12:58.163Z,46.60
2019-01-04T09:15:27.403Z,46.60
2019-01-04T09:17:56.577Z,46.40
2019-01-04T09:20:25.833Z,46.10
2019-01-04T09:22:54.999Z,46.70
2019-01-04T09:25:24.245Z,46.40
2019-01-04T09:27:53.483Z,46.40
2019-01-04T09:30:22.930Z,46.50
2019-01-04T09:32:52.444Z,46.50
2019-01-04T09:35:21.678Z,46.70
2019-01-04T09:37:50.879Z,46.50
2019-01-04T09:40:20.040Z,46.50
2019-01-04T09:42:49.341Z,46.60
2019-01-04T09:45:18.606Z,47.00
2019-01-04T09:47:47.802Z,47.50
2019-01-04T09:50:17.017Z,47.60
2019-01-04T09:52:46.165Z,47.70
2019-01-04T09:55:15.297Z,47.70
2019-01-04T09:57:44.515Z,47.70
2019-01-04T10:00:14.225Z,48.10
2019-01-04T10:02:43.420Z,48.60
2019-01-04T10:05:12.812Z,48.50
2019-01-04T10:07:42.002Z,48.70
2019-01-04T10:10:12.322Z,49.00
2019-01-04T10:12:41.675Z,49.70
2019-01-04T10:15:17.762Z,50.80
2019-01-04T10:17:46.958Z,50.80
2019-01-04T10:20:16.126Z,50.60
2019-01-04T10:22:45.420Z,50.50
2019-01-04T10:25:14.865Z,50.20
2019-01-04T10:27:44.219Z,50.00
2019-01-04T10:30:27.621Z,50.00
2019-01-04T10:32:56.818Z,49.70
2019-01-04T10:35:26.069Z,49.60
2019-01-04T10:37:55.320Z,49.40
2019-01-04T10:40:24.947Z,49.30
2019-01-04T10:42:54.307Z,49.30
2019-01-04T10:45:23.446Z,49.00
2019-01-04T10:47:52.663Z,48.90
2019-01-04T10:50:21.877Z,48.70
2019-01-04T10:52:51.134Z,47.20
2019-01-04T10:55:20.374Z,45.40
2019-01-04T10:57:49.610Z,45.50
2019-01-04T11:00:18.831Z,46.50
2019-01-04T11:02:48.051Z,46.60
2019-01-04T11:05:17.343Z,46.80
2019-01-04T11:07:46.565Z,46.80
2019-01-04T11:10:15.887Z,47.30
2019-01-04T11:12:45.083Z,47.40
2019-01-04T11:15:14.301Z,47.50
2019-01-04T11:17:43.830Z,47.50
2019-01-04T11:20:39.543Z,47.50
2019-01-04T11:23:42.582Z,47.50
2019-01-04T11:26:19.517Z,47.70
2019-01-04T11:29:45.077Z,47.70
2019-01-04T11:32:49.029Z,48.20
2019-01-04T11:35:40.941Z,48.30
2019-01-04T11:38:30.214Z,48.10
2019-01-04T11:41:23.343Z,47.80
2019-01-04T11:44:33.786Z,47.80
2019-01-04T11:47:38.268Z,47.70
2019-01-04T11:50:42.946Z,47.80
2019-01-04T11:53:16.624Z,47.90
2019-01-04T11:55:46.109Z,47.90
2019-01-04T11:58:15.366Z,47.90
2019-01-04T12:00:44.610Z,48.00
2019-01-04T12:03:13.890Z,47.90
2019-01-04T12:05:43.125Z,47.80
2019-01-04T12:08:12.425Z,47.70
2019-01-04T12:10:41.655Z,47.60
2019-01-04T12:13:11.038Z,47.50
2019-01-04T12:15:40.365Z,47.90
2019-01-04T12:18:09.955Z,47.20
2019-01-04T12:20:45.281Z,47.20
2019-01-04T12:23:11.231Z,47.00
2019-01-04T12:25:48.741Z,46.90
2019-01-04T12:28:18.174Z,46.80
2019-01-04T12:30:47.616Z,46.70
2019-01-04T12:33:19.688Z,46.60
2019-01-04T12:35:49.423Z,46.80
2019-01-04T12:38:18.634Z,46.70
2019-01-04T12:40:47.825Z,46.80
2019-01-04T12:43:17.149Z,46.80
2019-01-04T12:45:46.321Z,48.80
2019-01-04T12:48:15.512Z,48.90
2019-01-04T12:50:44.747Z,49.10
2019-01-04T12:53:13.870Z,48.70
2019-01-04T12:55:43.005Z,48.20
2019-01-04T12:58:12.214Z,47.70
2019-01-04T13:00:41.434Z,47.50
2019-01-04T13:03:10.685Z,47.50
2019-01-04T13:05:39.896Z,47.70
2019-01-04T13:08:09.234Z,47.70
2019-01-04T13:10:38.418Z,47.40
2019-01-04T13:13:07.652Z,47.40
2019-01-04T13:15:36.866Z,47.40
2019-01-04T13:18:06.048Z,47.50
2019-01-04T13:20:35.337Z,47.50
2019-01-04T13:23:04.533Z,47.40
2019-01-04T13:25:33.460Z,47.60
2019-01-04T13:28:02.704Z,47.60
2019-01-04T13:30:31.863Z,47.40
2019-01-04T13:33:01.434Z,47.40
2019-01-04T13:35:30.676Z,47.30
2019-01-04T13:37:59.874Z,47.40
2019-01-04T13:40:29.122Z,47.30
2019-01-04T13:42:58.365Z,47.30
2019-01-04T13:45:27.565Z,47.30
2019-01-04T13:47:56.849Z,47.30
2019-01-04T13:50:26.044Z,47.30
2019-01-04T13:52:55.251Z,47.20
2019-01-04T13:55:24.433Z,47.20
2019-01-04T13:57:53.650Z,47.20
2019-01-04T14:00:22.800Z,47.20
2019-01-04T14:02:52.010Z,47.10
2019-01-04T14:05:21.248Z,47.10
2019-01-04T14:07:50.497Z,47.10
2019-01-04T14:10:19.691Z,47.00
2019-01-04T14:12:48.910Z,46.90
2019-01-04T14:15:18.075Z,47.50
2019-01-04T14:17:47.294Z,46.90
2019-01-04T14:20:16.483Z,46.90
2019-01-04T14:22:45.702Z,46.90
2019-01-04T14:25:14.991Z,46.80
2019-01-04T14:27:44.209Z,46.70
2019-01-04T14:30:13.566Z,46.70
2019-01-04T14:32:42.817Z,46.70
2019-01-04T14:35:12.050Z,46.70
2019-01-04T14:37:41.285Z,46.60
2019-01-04T14:40:11.423Z,46.60
2019-01-04T14:42:40.626Z,46.60
2019-01-04T14:45:10.093Z,46.80
2019-01-04T14:47:39.608Z,46.90
2019-01-04T14:50:10.025Z,46.90
2019-01-04T14:52:41.154Z,46.90
2019-01-04T14:55:10.437Z,46.90
2019-01-04T14:57:39.865Z,46.90
2019-01-04T15:00:11.360Z,46.80
2019-01-04T15:02:40.587Z,47.50
2019-01-04T15:05:09.774Z,48.50
2019-01-04T15:07:39.002Z,48.10
2019-01-04T15:10:09.270Z,47.70
2019-01-04T15:12:38.492Z,47.60
2019-01-04T15:15:07.914Z,47.50
2019-01-04T15:17:37.112Z,47.40
2019-01-04T15:20:07.185Z,47.30
2019-01-04T15:22:36.706Z,47.20
2019-01-04T15:25:06.401Z,47.20
2019-01-04T15:27:35.563Z,47.10
2019-01-04T15:30:05.428Z,47.10
2019-01-04T15:32:34.710Z,47.00
2019-01-04T15:35:04.010Z,46.90
2019-01-04T15:37:33.275Z,47.00
2019-01-04T15:40:02.482Z,47.00
2019-01-04T15:42:31.675Z,46.90
2019-01-04T15:45:00.923Z,46.90
2019-01-04T15:47:30.131Z,46.80
2019-01-04T15:49:59.407Z,46.80
2019-01-04T15:52:28.641Z,46.80
2019-01-04T15:54:58.129Z,46.90
2019-01-04T15:57:27.386Z,46.90
2019-01-04T15:59:56.565Z,47.00
2019-01-04T16:02:25.763Z,46.90
2019-01-04T16:04:54.994Z,47.00
2019-01-04T16:07:24.450Z,47.00
2019-01-04T16:09:53.705Z,46.90
2019-01-04T16:12:22.925Z,46.80
2019-01-04T16:14:52.106Z,46.80
2019-01-04T16:17:21.407Z,46.80
2019-01-04T16:19:50.599Z,46.90
2019-01-04T16:22:19.847Z,47.50
2019-01-04T16:24:49.069Z,46.80
2019-01-04T16:27:18.274Z,46.90
2019-01-04T16:29:47.533Z,46.90
2019-01-04T16:32:16.741Z,46.90
2019-01-04T16:34:45.918Z,46.80
2019-01-04T16:37:15.162Z,46.50
2019-01-04T16:39:44.414Z,46.70
2019-01-04T16:42:13.658Z,46.70
2019-01-04T16:44:42.927Z,46.90
2019-01-04T16:47:12.127Z,46.90
2019-01-04T16:49:41.593Z,46.90
2019-01-04T16:52:10.841Z,48.30
2019-01-04T16:54:40.038Z,47.50
2019-01-04T16:57:09.267Z,47.10
2019-01-04T16:59:38.495Z,46.90
2019-01-04T17:02:07.799Z,46.80
2019-01-04T17:04:37.025Z,46.80
2019-01-04T17:07:06.263Z,46.80
2019-01-04T17:09:35.474Z,46.90
2019-01-04T17:12:04.698Z,46.70
2019-01-04T17:14:33.893Z,46.70
2019-01-04T17:17:03.092Z,46.70
2019-01-04T17:19:32.310Z,46.80
2019-01-04T17:22:01.519Z,47.20
2019-01-04T17:24:30.733Z,47.40
2019-01-04T17:26:59.917Z,46.70
2019-01-04T17:29:30.026Z,46.70
2019-01-04T17:31:59.278Z,46.70
2019-01-04T17:34:28.472Z,46.60
2019-01-04T17:36:57.759Z,46.50
2019-01-04T17:39:26.963Z,46.40
2019-01-04T17:41:56.197Z,46.40
2019-01-04T17:44:25.413Z,46.40
2019-01-04T17:46:54.900Z,46.30
2019-01-04T17:49:24.167Z,46.20
2019-01-04T17:51:53.338Z,46.30
2019-01-04T17:54:22.718Z,46.20
2019-01-04T17:56:52.053Z,46.20
2019-01-04T17:59:21.228Z,46.20
2019-01-04T18:01:50.401Z,46.20
2019-01-04T18:04:19.597Z,46.90
2019-01-04T18:06:48.717Z,46.20
2019-01-04T18:09:17.943Z,46.20
2019-01-04T18:11:47.135Z,46.20
2019-01-04T18:14:16.329Z,46.20
2019-01-04T18:16:45.523Z,46.20
2019-01-04T18:19:14.781Z,45.70
2019-01-04T18:21:43.988Z,44.60
2019-01-04T18:24:13.270Z,44.40
2019-01-04T18:26:42.449Z,44.80
2019-01-04T18:29:11.651Z,45.00
2019-01-04T18:31:40.865Z,45.10
2019-01-04T18:34:10.082Z,45.00
2019-01-04T18:36:39.274Z,45.20
2019-01-04T18:39:09.064Z,44.90
2019-01-04T18:41:38.329Z,45.40
2019-01-04T18:44:07.589Z,45.00
2019-01-04T18:46:36.842Z,45.10
2019-01-04T18:49:06.389Z,45.60
2019-01-04T18:51:35.619Z,45.50
2019-01-04T18:54:04.875Z,45.40
2019-01-04T18:56:34.059Z,45.60
2019-01-04T18:59:03.718Z,45.20
2019-01-04T19:01:33.213Z,45.40
2019-01-04T19:04:02.441Z,45.40
2019-01-04T19:06:31.676Z,45.30
2019-01-04T19:09:00.895Z,45.30
2019-01-04T19:11:30.092Z,45.30
2019-01-04T19:13:59.304Z,45.30
2019-01-04T19:16:28.478Z,45.00
2019-01-04T19:18:57.675Z,45.30
2019-01-04T19:21:27.037Z,45.30
2019-01-04T19:23:56.265Z,45.20
2019-01-04T19:26:25.512Z,45.30
2019-01-04T19:28:54.838Z,45.30
2019-01-04T19:31:25.561Z,45.50
2019-01-04T19:33:55.278Z,45.50
2019-01-04T19:36:28.360Z,45.50
2019-01-04T19:38:58.779Z,45.50
2019-01-04T19:41:29.999Z,46.00
2019-01-04T19:44:23.786Z,45.50
2019-01-04T19:46:53.268Z,45.30
2019-01-04T19:49:23.169Z,45.40
2019-01-04T19:51:52.477Z,45.10
2019-01-04T19:54:21.701Z,45.10
2019-01-04T19:56:51.223Z,45.10
2019-01-04T19:59:20.547Z,45.20
2019-01-04T20:01:50.046Z,45.30
2019-01-04T20:04:19.350Z,45.20
2019-01-04T20:08:00.062Z,45.20
2019-01-04T20:11:40.303Z,45.20
2019-01-04T20:15:42.987Z,45.20
2019-01-04T20:18:31.637Z,44.60
2019-01-04T20:21:31.964Z,43.10
2019-01-04T20:24:19.021Z,42.50
2019-01-04T20:27:16.338Z,42.00
2019-01-04T20:30:10.128Z,41.70
2019-01-04T20:33:06.982Z,43.80
2019-01-04T20:35:53.900Z,44.40
2019-01-04T20:38:40.702Z,44.90
2019-01-04T20:41:26.260Z,45.20
2019-01-04T20:44:15.084Z,45.30
2019-01-04T20:47:09.681Z,45.10
2019-01-04T20:50:00.926Z,45.20
2019-01-04T20:52:47.706Z,45.30
2019-01-04T20:55:41.793Z,45.40
2019-01-04T20:58:33.826Z,45.40
2019-01-04T21:01:21.949Z,45.40
2019-01-04T21:04:05.527Z,45.40
2019-01-04T21:06:52.620Z,45.40
2019-01-04T21:09:51.944Z,45.20
2019-01-04T21:12:42.901Z,45.30
2019-01-04T21:15:43.258Z,45.50
2019-01-04T21:18:29.868Z,45.60
2019-01-04T21:21:17.147Z,45.70
2019-01-04T21:24:04.268Z,45.90
2019-01-04T21:26:51.240Z,46.00
2019-01-04T21:29:38.412Z,45.90
2019-01-04T21:32:25.453Z,46.00
2019-01-04T21:35:12.248Z,46.10
2019-01-04T21:38:12.341Z,46.10
2019-01-04T21:41:03.313Z,46.20
2019-01-04T21:43:51.803Z,46.20
2019-01-04T21:46:55.342Z,46.20
2019-01-04T21:49:42.013Z,45.90
2019-01-04T21:52:28.734Z,45.50
2019-01-04T21:55:17.301Z,45.50
2019-01-04T21:58:17.704Z,45.40
2019-01-04T22:01:17.715Z,45.50
2019-01-04T22:04:12.001Z,45.50
2019-01-04T22:07:15.191Z,45.90
2019-01-04T22:10:12.118Z,46.70
2019-01-04T22:13:18.378Z,46.10
2019-01-04T22:16:15.676Z,46.00
2019-01-04T22:19:02.413Z,45.90
2019-01-04T22:21:49.441Z,46.00
2019-01-04T22:24:40.664Z,45.90
2019-01-04T22:27:28.157Z,46.00
2019-01-04T22:30:14.879Z,45.90
2019-01-04T22:33:02.030Z,45.90
2019-01-04T22:35:48.806Z,46.00
2019-01-04T22:38:36.966Z,46.00
2019-01-04T22:41:34.188Z,46.00
2019-01-04T22:44:17.425Z,46.60
2019-01-04T22:47:04.472Z,46.10
2019-01-04T22:50:07.910Z,46.10
2019-01-04T22:53:14.329Z,46.40
2019-01-04T22:55:59.633Z,46.40
2019-01-04T22:58:46.014Z,46.40
2019-01-04T23:01:49.451Z,46.40
2019-01-04T23:04:37.673Z,46.40
2019-01-04T23:07:25.604Z,46.40
2019-01-04T23:10:25.590Z,46.60
2019-01-04T23:13:22.698Z,47.20
2019-01-04T23:16:22.753Z,46.60
2019-01-04T23:19:09.575Z,46.50
2019-01-04T23:22:11.045Z,46.50
2019-01-04T23:24:57.966Z,47.20
2019-01-04T23:27:55.290Z,46.70
2019-01-04T23:30:58.972Z,46.60
2019-01-04T23:33:45.705Z,46.40
2019-01-04T23:36:43.067Z,46.40
2019-01-04T23:39:43.471Z,46.10
2019-01-04T23:42:30.938Z,46.20
2019-01-04T23:45:18.325Z,48.00
2019-01-04T23:48:21.622Z,48.10
2019-01-04T23:51:12.957Z,47.90
2019-01-04T23:53:53.186Z,47.70
2019-01-04T23:56:41.167Z,47.70
2019-01-04T23:59:30.400Z,48.30
